QFA6 YPPH-YSSY
Flight info
| Callsign | QFA6 |
|---|---|
| Flight time | 4h 4m |
| Altitude | 39000 |
| Route | PH H18 MUBID J21 BORLI H205 CULIN Y59 RIVET |
| Aircraft | A333/H-SDE3GHIJ2J3J5M1RVWXY/LB2D1 |
Departure
| Time | 2026-05-07 22:14 |
|---|---|
| Airport | Perth International Airport (YPPH) |
Arrival
| Time | 2026-05-08 02:18 |
|---|---|
| Airport | Sydney Kingsford Smith International Airport (YSSY) |
| Time | Latitude | Longitude | Altitude | Speed | Heading |
|---|---|---|---|---|---|
| 2026-05-07 22:03 | -31.94021 | 115.97386 | 68 ft | 5 kts | 162° |
| 2026-05-07 22:03 | -31.94012 | 115.97383 | 68 ft | 4 kts | 158° |
| 2026-05-07 22:04 | -31.93988 | 115.97369 | 60 ft | 4 kts | 156° |
| 2026-05-07 22:04 | -31.93963 | 115.97357 | 59 ft | 4 kts | 161° |
| 2026-05-07 22:04 | -31.93943 | 115.97350 | 57 ft | 0 kts | 162° |
| 2026-05-07 22:08 | -31.93946 | 115.97350 | 58 ft | 1 kts | 172° |
| 2026-05-07 22:08 | -31.93951 | 115.97334 | 59 ft | 3 kts | 264° |
| 2026-05-07 22:08 | -31.93951 | 115.97241 | 59 ft | 17 kts | 264° |
| 2026-05-07 22:08 | -31.93951 | 115.97103 | 59 ft | 14 kts | 283° |
| 2026-05-07 22:09 | -31.93925 | 115.96987 | 56 ft | 15 kts | 284° |
| 2026-05-07 22:09 | -31.93934 | 115.96889 | 60 ft | 11 kts | 253° |
| 2026-05-07 22:09 | -31.93968 | 115.96824 | 61 ft | 11 kts | 236° |
| 2026-05-07 22:09 | -31.94031 | 115.96712 | 58 ft | 21 kts | 238° |
| 2026-05-07 22:10 | -31.94140 | 115.96664 | 62 ft | 16 kts | 168° |
| 2026-05-07 22:10 | -31.94259 | 115.96709 | 63 ft | 19 kts | 162° |
| 2026-05-07 22:10 | -31.94396 | 115.96730 | 59 ft | 22 kts | 176° |
| 2026-05-07 22:10 | -31.94571 | 115.96699 | 56 ft | 29 kts | 194° |
| 2026-05-07 22:11 | -31.94793 | 115.96634 | 52 ft | 37 kts | 193° |
| 2026-05-07 22:11 | -31.95063 | 115.96557 | 57 ft | 42 kts | 194° |
| 2026-05-07 22:11 | -31.95361 | 115.96473 | 58 ft | 46 kts | 193° |
| 2026-05-07 22:11 | -31.95678 | 115.96381 | 62 ft | 46 kts | 194° |
| 2026-05-07 22:12 | -31.95862 | 115.96323 | 58 ft | 0 kts | 210° |
| 2026-05-07 22:12 | -31.95881 | 115.96311 | 56 ft | 16 kts | 207° |
| 2026-05-07 22:12 | -31.95909 | 115.96187 | 57 ft | 17 kts | 285° |
| 2026-05-07 22:12 | -31.95879 | 115.96048 | 57 ft | 19 kts | 284° |
| 2026-05-07 22:13 | -31.95788 | 115.95997 | 51 ft | 16 kts | 11° |
| 2026-05-07 22:13 | -31.95750 | 115.96007 | 55 ft | 5 kts | 14° |
| 2026-05-07 22:13 | -31.95502 | 115.96080 | 56 ft | 67 kts | 14° |
| 2026-05-07 22:13 | -31.94864 | 115.96264 | 54 ft | 120 kts | 14° |
| 2026-05-07 22:14 | -31.93909 | 115.96533 | 89 ft | 160 kts | 17° |
| 2026-05-07 22:14 | -31.92825 | 115.96854 | 639 ft | 159 kts | 17° |
| 2026-05-07 22:14 | -31.91775 | 115.97187 | 1405 ft | 153 kts | 19° |
| 2026-05-07 22:14 | -31.90734 | 115.97523 | 1846 ft | 165 kts | 21° |
| 2026-05-07 22:15 | -31.89528 | 115.97931 | 2063 ft | 192 kts | 20° |
| 2026-05-07 22:15 | -31.88182 | 115.98405 | 2418 ft | 214 kts | 19° |
| 2026-05-07 22:15 | -31.86727 | 115.98924 | 3083 ft | 223 kts | 20° |
| 2026-05-07 22:15 | -31.85227 | 115.99463 | 3830 ft | 228 kts | 19° |
| 2026-05-07 22:16 | -31.83682 | 116.00018 | 4550 ft | 236 kts | 18° |
| 2026-05-07 22:16 | -31.82026 | 116.00336 | 5275 ft | 246 kts | 4° |
| 2026-05-07 22:16 | -31.80300 | 116.00009 | 5970 ft | 261 kts | 342° |
| 2026-05-07 22:16 | -31.78779 | 115.98759 | 6666 ft | 277 kts | 312° |
| 2026-05-07 22:17 | -31.77973 | 115.96673 | 7372 ft | 290 kts | 278° |
| 2026-05-07 22:17 | -31.78231 | 115.94335 | 8168 ft | 294 kts | 245° |
| 2026-05-07 22:17 | -31.79484 | 115.92476 | 8982 ft | 293 kts | 213° |
| 2026-05-07 22:17 | -31.81354 | 115.91628 | 9796 ft | 289 kts | 182° |
| 2026-05-07 22:18 | -31.83356 | 115.91776 | 10443 ft | 295 kts | 167° |
| 2026-05-07 22:18 | -31.87571 | 115.93105 | 11072 ft | 331 kts | 159° |
| 2026-05-07 22:18 | -31.89781 | 115.93981 | 11662 ft | 339 kts | 158° |
| 2026-05-07 22:19 | -31.92000 | 115.94962 | 12329 ft | 342 kts | 152° |
| 2026-05-07 22:19 | -31.94036 | 115.96403 | 13018 ft | 342 kts | 139° |
| 2026-05-07 22:19 | -31.95725 | 115.98372 | 13711 ft | 343 kts | 127° |
| 2026-05-07 22:19 | -31.97185 | 116.00599 | 14385 ft | 345 kts | 122° |
| 2026-05-07 22:20 | -31.98531 | 116.02950 | 15018 ft | 348 kts | 120° |
| 2026-05-07 22:20 | -31.99823 | 116.05373 | 15629 ft | 351 kts | 119° |
| 2026-05-07 22:20 | -32.01103 | 116.07831 | 16249 ft | 354 kts | 119° |
| 2026-05-07 22:20 | -32.02398 | 116.10313 | 16876 ft | 357 kts | 119° |
| 2026-05-07 22:21 | -32.03716 | 116.12812 | 17478 ft | 361 kts | 119° |
| 2026-05-07 22:21 | -32.05056 | 116.15324 | 18086 ft | 364 kts | 120° |
| 2026-05-07 22:21 | -32.06420 | 116.17858 | 18676 ft | 367 kts | 120° |
| 2026-05-07 22:21 | -32.07799 | 116.20407 | 19180 ft | 371 kts | 120° |
| 2026-05-07 22:22 | -32.09194 | 116.22982 | 19690 ft | 374 kts | 120° |
| 2026-05-07 22:22 | -32.10598 | 116.25574 | 20209 ft | 376 kts | 120° |
| 2026-05-07 22:22 | -32.12010 | 116.28181 | 20758 ft | 378 kts | 120° |
| 2026-05-07 22:22 | -32.13406 | 116.30761 | 21280 ft | 380 kts | 120° |
| 2026-05-07 22:23 | -32.14831 | 116.33400 | 21746 ft | 383 kts | 120° |
| 2026-05-07 22:23 | -32.16267 | 116.36064 | 22199 ft | 386 kts | 120° |
| 2026-05-07 22:23 | -32.17712 | 116.38747 | 22710 ft | 389 kts | 120° |
| 2026-05-07 22:23 | -32.19168 | 116.41452 | 23172 ft | 392 kts | 120° |
| 2026-05-07 22:24 | -32.20634 | 116.44175 | 23628 ft | 395 kts | 120° |
| 2026-05-07 22:24 | -32.22106 | 116.46923 | 24080 ft | 397 kts | 120° |
| 2026-05-07 22:24 | -32.23580 | 116.49695 | 24454 ft | 400 kts | 120° |
| 2026-05-07 22:24 | -32.25062 | 116.52492 | 24832 ft | 403 kts | 120° |
| 2026-05-07 22:25 | -32.26550 | 116.55308 | 25187 ft | 405 kts | 120° |
| 2026-05-07 22:25 | -32.28048 | 116.58143 | 25580 ft | 407 kts | 120° |
| 2026-05-07 22:25 | -32.29547 | 116.60983 | 25977 ft | 408 kts | 120° |
| 2026-05-07 22:25 | -32.31055 | 116.63841 | 26331 ft | 411 kts | 120° |
| 2026-05-07 22:26 | -32.32573 | 116.66718 | 26679 ft | 414 kts | 120° |
| 2026-05-07 22:26 | -32.34100 | 116.69613 | 27024 ft | 416 kts | 120° |
| 2026-05-07 22:26 | -32.35635 | 116.72528 | 27375 ft | 419 kts | 120° |
| 2026-05-07 22:26 | -32.37177 | 116.75457 | 27705 ft | 421 kts | 120° |
| 2026-05-07 22:27 | -32.38728 | 116.78404 | 28050 ft | 423 kts | 120° |
| 2026-05-07 22:27 | -32.40286 | 116.81369 | 28387 ft | 426 kts | 120° |
| 2026-05-07 22:27 | -32.41856 | 116.84356 | 28714 ft | 428 kts | 121° |
| 2026-05-07 22:27 | -32.43430 | 116.87355 | 29056 ft | 430 kts | 121° |
| 2026-05-07 22:28 | -32.45009 | 116.90366 | 29410 ft | 431 kts | 121° |
| 2026-05-07 22:28 | -32.46596 | 116.93393 | 29729 ft | 434 kts | 121° |
| 2026-05-07 22:28 | -32.48191 | 116.96440 | 30018 ft | 436 kts | 121° |
| 2026-05-07 22:28 | -32.49793 | 116.99503 | 30335 ft | 439 kts | 121° |
| 2026-05-07 22:29 | -32.51403 | 117.02584 | 30631 ft | 441 kts | 121° |
| 2026-05-07 22:29 | -32.52986 | 117.05709 | 30873 ft | 443 kts | 117° |
| 2026-05-07 22:29 | -32.54267 | 117.09026 | 31119 ft | 444 kts | 110° |
| 2026-05-07 22:29 | -32.55345 | 117.12462 | 31398 ft | 445 kts | 109° |
| 2026-05-07 22:30 | -32.56363 | 117.15939 | 31604 ft | 448 kts | 108° |
| 2026-05-07 22:30 | -32.57349 | 117.19454 | 31873 ft | 450 kts | 108° |
| 2026-05-07 22:30 | -32.58321 | 117.22985 | 32120 ft | 451 kts | 108° |
| 2026-05-07 22:30 | -32.59291 | 117.26530 | 32380 ft | 453 kts | 108° |
| 2026-05-07 22:31 | -32.60253 | 117.30037 | 32589 ft | 455 kts | 108° |
| 2026-05-07 22:31 | -32.61234 | 117.33604 | 32889 ft | 455 kts | 108° |
| 2026-05-07 22:31 | -32.62219 | 117.37173 | 33177 ft | 455 kts | 108° |
| 2026-05-07 22:31 | -32.63204 | 117.40735 | 33560 ft | 453 kts | 108° |
| 2026-05-07 22:32 | -32.64185 | 117.44284 | 33915 ft | 452 kts | 108° |
| 2026-05-07 22:32 | -32.65162 | 117.47818 | 34308 ft | 450 kts | 108° |
| 2026-05-07 22:32 | -32.66139 | 117.51358 | 34540 ft | 451 kts | 108° |
| 2026-05-07 22:32 | -32.67115 | 117.54899 | 34724 ft | 453 kts | 108° |
| 2026-05-07 22:33 | -32.67776 | 117.57301 | 34850 ft | 454 kts | 108° |
| 2026-05-07 22:33 | -32.68754 | 117.60856 | 35127 ft | 453 kts | 108° |
| 2026-05-07 22:33 | -32.69731 | 117.64412 | 35331 ft | 453 kts | 108° |
| 2026-05-07 22:33 | -32.70706 | 117.67967 | 35571 ft | 453 kts | 108° |
| 2026-05-07 22:34 | -32.71684 | 117.71536 | 35701 ft | 455 kts | 108° |
| 2026-05-07 22:34 | -32.72651 | 117.75073 | 35860 ft | 457 kts | 108° |
| 2026-05-07 22:34 | -32.73634 | 117.78668 | 36049 ft | 458 kts | 109° |
| 2026-05-07 22:34 | -32.74627 | 117.82308 | 36283 ft | 457 kts | 109° |
| 2026-05-07 22:35 | -32.75607 | 117.85902 | 36487 ft | 458 kts | 109° |
| 2026-05-07 22:35 | -32.76589 | 117.89510 | 36652 ft | 459 kts | 109° |
| 2026-05-07 22:35 | -32.77571 | 117.93121 | 36819 ft | 460 kts | 108° |
| 2026-05-07 22:35 | -32.78540 | 117.96692 | 37008 ft | 461 kts | 108° |
| 2026-05-07 22:36 | -32.79523 | 118.00316 | 37173 ft | 461 kts | 108° |
| 2026-05-07 22:36 | -32.80506 | 118.03948 | 37358 ft | 462 kts | 109° |
| 2026-05-07 22:36 | -32.81491 | 118.07589 | 37518 ft | 463 kts | 109° |
| 2026-05-07 22:36 | -32.82488 | 118.11277 | 37780 ft | 462 kts | 109° |
| 2026-05-07 22:37 | -32.83454 | 118.14861 | 37972 ft | 462 kts | 109° |
| 2026-05-07 22:37 | -32.84435 | 118.18500 | 38139 ft | 462 kts | 109° |
| 2026-05-07 22:37 | -32.85414 | 118.22140 | 38285 ft | 463 kts | 109° |
| 2026-05-07 22:37 | -32.86395 | 118.25790 | 38476 ft | 463 kts | 109° |
| 2026-05-07 22:38 | -32.87374 | 118.29439 | 38665 ft | 463 kts | 109° |
| 2026-05-07 22:38 | -32.88352 | 118.33088 | 38852 ft | 463 kts | 109° |
| 2026-05-07 22:38 | -32.89329 | 118.36738 | 39036 ft | 463 kts | 109° |
| 2026-05-07 22:38 | -32.90304 | 118.40386 | 39227 ft | 463 kts | 109° |
| 2026-05-07 22:39 | -32.91278 | 118.44032 | 39354 ft | 462 kts | 109° |
| 2026-05-07 22:39 | -32.92251 | 118.47682 | 39478 ft | 463 kts | 109° |
| 2026-05-07 22:39 | -32.93225 | 118.51340 | 39541 ft | 464 kts | 109° |
| 2026-05-07 22:40 | -32.95177 | 118.58701 | 39548 ft | 470 kts | 107° |
| 2026-05-07 22:40 | -32.96119 | 118.66442 | 39557 ft | 479 kts | 89° |
| 2026-05-07 22:41 | -32.95032 | 118.74317 | 39553 ft | 487 kts | 77° |
| 2026-05-07 22:41 | -32.93242 | 118.82151 | 39558 ft | 494 kts | 75° |
| 2026-05-07 22:42 | -32.91323 | 118.90037 | 39558 ft | 497 kts | 75° |
| 2026-05-07 22:42 | -32.89427 | 118.97935 | 39563 ft | 496 kts | 75° |
| 2026-05-07 22:43 | -32.87559 | 119.05824 | 39560 ft | 495 kts | 75° |
| 2026-05-07 22:43 | -32.85700 | 119.13704 | 39562 ft | 495 kts | 75° |
| 2026-05-07 22:44 | -32.83836 | 119.21583 | 39562 ft | 495 kts | 75° |
| 2026-05-07 22:44 | -32.81967 | 119.29453 | 39563 ft | 495 kts | 75° |
| 2026-05-07 22:45 | -32.80091 | 119.37322 | 39565 ft | 494 kts | 75° |
| 2026-05-07 22:45 | -32.78212 | 119.45182 | 39565 ft | 494 kts | 75° |
| 2026-05-07 22:46 | -32.76328 | 119.53038 | 39570 ft | 494 kts | 75° |
| 2026-05-07 22:46 | -32.74438 | 119.60892 | 39573 ft | 494 kts | 75° |
| 2026-05-07 22:47 | -32.72545 | 119.68742 | 39570 ft | 494 kts | 75° |
| 2026-05-07 22:47 | -32.70647 | 119.76585 | 39576 ft | 494 kts | 75° |
| 2026-05-07 22:48 | -32.68756 | 119.84374 | 39580 ft | 494 kts | 75° |
| 2026-05-07 22:48 | -32.66848 | 119.92211 | 39575 ft | 494 kts | 75° |
| 2026-05-07 22:49 | -32.64937 | 120.00038 | 39578 ft | 494 kts | 75° |
| 2026-05-07 22:49 | -32.63020 | 120.07867 | 39578 ft | 494 kts | 75° |
| 2026-05-07 22:50 | -32.61099 | 120.15687 | 39582 ft | 494 kts | 75° |
| 2026-05-07 22:50 | -32.59168 | 120.23525 | 39583 ft | 495 kts | 75° |
| 2026-05-07 22:51 | -32.57234 | 120.31351 | 39581 ft | 494 kts | 75° |
| 2026-05-07 22:51 | -32.55300 | 120.39154 | 39581 ft | 493 kts | 75° |
| 2026-05-07 22:52 | -32.53364 | 120.46945 | 39584 ft | 493 kts | 75° |
| 2026-05-07 22:52 | -32.51421 | 120.54742 | 39587 ft | 493 kts | 75° |
| 2026-05-07 22:53 | -32.49474 | 120.62531 | 39586 ft | 493 kts | 75° |
| 2026-05-07 22:53 | -32.47521 | 120.70323 | 39586 ft | 493 kts | 75° |
| 2026-05-07 22:54 | -32.45564 | 120.78105 | 39586 ft | 493 kts | 75° |
| 2026-05-07 22:54 | -32.43603 | 120.85885 | 39586 ft | 493 kts | 75° |
| 2026-05-07 22:55 | -32.41635 | 120.93666 | 39589 ft | 493 kts | 75° |
| 2026-05-07 22:55 | -32.39664 | 121.01438 | 39590 ft | 493 kts | 75° |
| 2026-05-07 22:56 | -32.37688 | 121.09207 | 39589 ft | 493 kts | 75° |
| 2026-05-07 22:56 | -32.35709 | 121.16968 | 39589 ft | 493 kts | 75° |
| 2026-05-07 22:57 | -32.33724 | 121.24729 | 39597 ft | 493 kts | 75° |
| 2026-05-07 22:57 | -32.31748 | 121.32434 | 39594 ft | 493 kts | 75° |
| 2026-05-07 22:58 | -32.29756 | 121.40178 | 39594 ft | 493 kts | 75° |
| 2026-05-07 22:58 | -32.27758 | 121.47924 | 39594 ft | 492 kts | 75° |
| 2026-05-07 22:59 | -32.25757 | 121.55661 | 39597 ft | 492 kts | 75° |
| 2026-05-07 22:59 | -32.23750 | 121.63398 | 39597 ft | 493 kts | 75° |
| 2026-05-07 23:00 | -32.21739 | 121.71130 | 39598 ft | 493 kts | 75° |
| 2026-05-07 23:00 | -32.19943 | 121.78918 | 39601 ft | 490 kts | 83° |
| 2026-05-07 23:01 | -32.19651 | 121.86909 | 39601 ft | 487 kts | 92° |
| 2026-05-07 23:01 | -32.19863 | 121.94901 | 39599 ft | 487 kts | 94° |
| 2026-05-07 23:02 | -32.20162 | 122.02884 | 39602 ft | 487 kts | 94° |
| 2026-05-07 23:02 | -32.20440 | 122.10868 | 39602 ft | 486 kts | 94° |
| 2026-05-07 23:03 | -32.20687 | 122.18762 | 39607 ft | 482 kts | 94° |
| 2026-05-07 23:03 | -32.20925 | 122.26712 | 39604 ft | 487 kts | 94° |
| 2026-05-07 23:04 | -32.21157 | 122.34703 | 39603 ft | 487 kts | 94° |
| 2026-05-07 23:04 | -32.21384 | 122.42695 | 39605 ft | 487 kts | 94° |
| 2026-05-07 23:05 | -32.21606 | 122.50673 | 39609 ft | 486 kts | 94° |
| 2026-05-07 23:05 | -32.21824 | 122.58632 | 39608 ft | 485 kts | 94° |
| 2026-05-07 23:06 | -32.22036 | 122.66589 | 39609 ft | 485 kts | 94° |
| 2026-05-07 23:06 | -32.22243 | 122.74539 | 39613 ft | 484 kts | 93° |
| 2026-05-07 23:07 | -32.22444 | 122.82436 | 39612 ft | 484 kts | 93° |
| 2026-05-07 23:07 | -32.22641 | 122.90382 | 39612 ft | 484 kts | 93° |
| 2026-05-07 23:08 | -32.22834 | 122.98331 | 39609 ft | 484 kts | 93° |
| 2026-05-07 23:08 | -32.23021 | 123.06279 | 39610 ft | 484 kts | 93° |
| 2026-05-07 23:09 | -32.23203 | 123.14225 | 39613 ft | 484 kts | 93° |
| 2026-05-07 23:09 | -32.23380 | 123.22169 | 39613 ft | 483 kts | 93° |
| 2026-05-07 23:10 | -32.23552 | 123.30100 | 39615 ft | 483 kts | 93° |
| 2026-05-07 23:10 | -32.23719 | 123.38023 | 39610 ft | 483 kts | 93° |
| 2026-05-07 23:11 | -32.23881 | 123.45945 | 39609 ft | 483 kts | 93° |
| 2026-05-07 23:11 | -32.24037 | 123.53869 | 39611 ft | 483 kts | 93° |
| 2026-05-07 23:12 | -32.24190 | 123.61796 | 39614 ft | 483 kts | 93° |
| 2026-05-07 23:12 | -32.24337 | 123.69721 | 39613 ft | 483 kts | 92° |
| 2026-05-07 23:13 | -32.24479 | 123.77640 | 39613 ft | 482 kts | 92° |
| 2026-05-07 23:13 | -32.24615 | 123.85511 | 39605 ft | 482 kts | 92° |
| 2026-05-07 23:14 | -32.24747 | 123.93422 | 39608 ft | 482 kts | 92° |
| 2026-05-07 23:14 | -32.24874 | 124.01328 | 39608 ft | 481 kts | 92° |
| 2026-05-07 23:15 | -32.24996 | 124.09229 | 39608 ft | 481 kts | 92° |
| 2026-05-07 23:15 | -32.25113 | 124.17128 | 39608 ft | 481 kts | 92° |
| 2026-05-07 23:16 | -32.25225 | 124.25027 | 39608 ft | 481 kts | 92° |
| 2026-05-07 23:16 | -32.25332 | 124.32924 | 39608 ft | 481 kts | 92° |
| 2026-05-07 23:17 | -32.25434 | 124.40819 | 39608 ft | 481 kts | 92° |
| 2026-05-07 23:17 | -32.25532 | 124.48716 | 39607 ft | 481 kts | 92° |
| 2026-05-07 23:18 | -32.25624 | 124.56616 | 39609 ft | 481 kts | 92° |
| 2026-05-07 23:18 | -32.25711 | 124.64514 | 39607 ft | 480 kts | 92° |
| 2026-05-07 23:19 | -32.25794 | 124.72388 | 39605 ft | 479 kts | 92° |
| 2026-05-07 23:19 | -32.25871 | 124.80258 | 39605 ft | 479 kts | 92° |
| 2026-05-07 23:20 | -32.25944 | 124.88130 | 39605 ft | 479 kts | 92° |
| 2026-05-07 23:20 | -32.26000 | 124.94675 | 39606 ft | 479 kts | 92° |
| 2026-05-07 23:21 | -32.26064 | 125.02551 | 39608 ft | 479 kts | 92° |
| 2026-05-07 23:21 | -32.26123 | 125.10427 | 39607 ft | 480 kts | 92° |
| 2026-05-07 23:22 | -32.26177 | 125.18308 | 39609 ft | 480 kts | 91° |
| 2026-05-07 23:22 | -32.26226 | 125.26191 | 39606 ft | 480 kts | 91° |
| 2026-05-07 23:23 | -32.26270 | 125.34065 | 39601 ft | 479 kts | 91° |
| 2026-05-07 23:23 | -32.26309 | 125.41925 | 39609 ft | 478 kts | 91° |
| 2026-05-07 23:24 | -32.26471 | 125.49768 | 39607 ft | 477 kts | 97° |
| 2026-05-07 23:24 | -32.27239 | 125.57546 | 39600 ft | 477 kts | 98° |
| 2026-05-07 23:25 | -32.28125 | 125.65323 | 39603 ft | 478 kts | 99° |
| 2026-05-07 23:25 | -32.29028 | 125.73098 | 39600 ft | 477 kts | 99° |
| 2026-05-07 23:26 | -32.29917 | 125.80876 | 39603 ft | 478 kts | 98° |
| 2026-05-07 23:26 | -32.30794 | 125.88655 | 39602 ft | 477 kts | 98° |
| 2026-05-07 23:27 | -32.32093 | 126.00301 | 39601 ft | 476 kts | 98° |
| 2026-05-07 23:27 | -32.32952 | 126.08054 | 39594 ft | 476 kts | 98° |
| 2026-05-07 23:28 | -32.33808 | 126.15811 | 39588 ft | 476 kts | 98° |
| 2026-05-07 23:28 | -32.34658 | 126.23565 | 39584 ft | 476 kts | 98° |
| 2026-05-07 23:29 | -32.35503 | 126.31325 | 39601 ft | 476 kts | 98° |
| 2026-05-07 23:29 | -32.36344 | 126.39089 | 39602 ft | 475 kts | 98° |
| 2026-05-07 23:30 | -32.37172 | 126.46776 | 39593 ft | 474 kts | 98° |
| 2026-05-07 23:30 | -32.38000 | 126.54505 | 39598 ft | 474 kts | 98° |
| 2026-05-07 23:31 | -32.38825 | 126.62252 | 39601 ft | 475 kts | 98° |
| 2026-05-07 23:31 | -32.39646 | 126.70004 | 39589 ft | 475 kts | 98° |
| 2026-05-07 23:32 | -32.40462 | 126.77762 | 39595 ft | 475 kts | 98° |
| 2026-05-07 23:32 | -32.41272 | 126.85513 | 39601 ft | 474 kts | 98° |
| 2026-05-07 23:33 | -32.42077 | 126.93263 | 39598 ft | 474 kts | 98° |
| 2026-05-07 23:33 | -32.42878 | 127.01014 | 39589 ft | 475 kts | 98° |
| 2026-05-07 23:34 | -32.43676 | 127.08783 | 39601 ft | 476 kts | 98° |
| 2026-05-07 23:34 | -32.44471 | 127.16575 | 39597 ft | 477 kts | 98° |
| 2026-05-07 23:35 | -32.45261 | 127.24361 | 39598 ft | 476 kts | 98° |
| 2026-05-07 23:35 | -32.46046 | 127.32156 | 39604 ft | 477 kts | 98° |
| 2026-05-07 23:36 | -32.46823 | 127.39920 | 39601 ft | 474 kts | 98° |
| 2026-05-07 23:36 | -32.47594 | 127.47666 | 39592 ft | 473 kts | 98° |
| 2026-05-07 23:37 | -32.48360 | 127.55409 | 39602 ft | 474 kts | 98° |
| 2026-05-07 23:37 | -32.49121 | 127.63155 | 39591 ft | 473 kts | 98° |
| 2026-05-07 23:38 | -32.49878 | 127.70909 | 39603 ft | 474 kts | 98° |
| 2026-05-07 23:38 | -32.50631 | 127.78669 | 39591 ft | 475 kts | 98° |
| 2026-05-07 23:39 | -32.51379 | 127.86434 | 39591 ft | 474 kts | 98° |
| 2026-05-07 23:39 | -32.52121 | 127.94188 | 39597 ft | 473 kts | 98° |
| 2026-05-07 23:40 | -32.52858 | 128.01936 | 39600 ft | 474 kts | 97° |
| 2026-05-07 23:40 | -32.53587 | 128.09701 | 39590 ft | 474 kts | 98° |
| 2026-05-07 23:41 | -32.54311 | 128.17472 | 39594 ft | 475 kts | 98° |
| 2026-05-07 23:41 | -32.55031 | 128.25249 | 39592 ft | 475 kts | 97° |
| 2026-05-07 23:42 | -32.55743 | 128.32985 | 39605 ft | 475 kts | 97° |
| 2026-05-07 23:42 | -32.56454 | 128.40765 | 39599 ft | 474 kts | 97° |
| 2026-05-07 23:43 | -32.57158 | 128.48533 | 39597 ft | 474 kts | 97° |
| 2026-05-07 23:43 | -32.57860 | 128.56313 | 39601 ft | 474 kts | 97° |
| 2026-05-07 23:44 | -32.58555 | 128.64088 | 39596 ft | 474 kts | 97° |
| 2026-05-07 23:44 | -32.59247 | 128.71867 | 39592 ft | 475 kts | 97° |
| 2026-05-07 23:45 | -32.59934 | 128.79655 | 39596 ft | 474 kts | 97° |
| 2026-05-07 23:45 | -32.60615 | 128.87434 | 39599 ft | 474 kts | 97° |
| 2026-05-07 23:46 | -32.61290 | 128.95202 | 39595 ft | 474 kts | 97° |
| 2026-05-07 23:46 | -32.61963 | 129.02993 | 39603 ft | 475 kts | 97° |
| 2026-05-07 23:47 | -32.62631 | 129.10785 | 39595 ft | 475 kts | 97° |
| 2026-05-07 23:47 | -32.63294 | 129.18574 | 39598 ft | 475 kts | 97° |
| 2026-05-07 23:48 | -32.63952 | 129.26376 | 39600 ft | 475 kts | 97° |
| 2026-05-07 23:48 | -32.64605 | 129.34169 | 39592 ft | 474 kts | 96° |
| 2026-05-07 23:49 | -32.65253 | 129.41954 | 39589 ft | 475 kts | 96° |
| 2026-05-07 23:49 | -32.65896 | 129.49746 | 39586 ft | 475 kts | 96° |
| 2026-05-07 23:50 | -32.66535 | 129.57546 | 39584 ft | 475 kts | 96° |
| 2026-05-07 23:50 | -32.67170 | 129.65354 | 39585 ft | 476 kts | 97° |
| 2026-05-07 23:51 | -32.67800 | 129.73171 | 39594 ft | 475 kts | 96° |
| 2026-05-07 23:51 | -32.68424 | 129.80969 | 39594 ft | 474 kts | 97° |
| 2026-05-07 23:52 | -32.69044 | 129.88770 | 39584 ft | 475 kts | 96° |
| 2026-05-07 23:52 | -32.69659 | 129.96576 | 39582 ft | 475 kts | 97° |
| 2026-05-07 23:53 | -32.70269 | 130.04389 | 39587 ft | 475 kts | 96° |
| 2026-05-07 23:53 | -32.70871 | 130.12157 | 39584 ft | 476 kts | 97° |
| 2026-05-07 23:54 | -32.71472 | 130.19973 | 39589 ft | 475 kts | 96° |
| 2026-05-07 23:54 | -32.72067 | 130.27781 | 39582 ft | 475 kts | 97° |
| 2026-05-07 23:55 | -32.72659 | 130.35596 | 39586 ft | 475 kts | 96° |
| 2026-05-07 23:55 | -32.73245 | 130.43411 | 39583 ft | 475 kts | 96° |
| 2026-05-07 23:56 | -32.73826 | 130.51227 | 39586 ft | 476 kts | 96° |
| 2026-05-07 23:56 | -32.74405 | 130.59071 | 39587 ft | 477 kts | 96° |
| 2026-05-07 23:57 | -32.74977 | 130.66898 | 39584 ft | 475 kts | 97° |
| 2026-05-07 23:57 | -32.75543 | 130.74710 | 39583 ft | 475 kts | 96° |
| 2026-05-07 23:58 | -32.76103 | 130.82515 | 39586 ft | 474 kts | 96° |
| 2026-05-07 23:58 | -32.76660 | 130.90331 | 39580 ft | 474 kts | 96° |
| 2026-05-07 23:59 | -32.77212 | 130.98149 | 39587 ft | 476 kts | 96° |
| 2026-05-07 23:59 | -32.77760 | 131.05987 | 39591 ft | 475 kts | 96° |
| 2026-05-08 00:00 | -32.78302 | 131.13802 | 39580 ft | 474 kts | 96° |
| 2026-05-08 00:00 | -32.78839 | 131.21623 | 39586 ft | 476 kts | 97° |
| 2026-05-08 00:01 | -32.79373 | 131.29468 | 39579 ft | 476 kts | 96° |
| 2026-05-08 00:01 | -32.79902 | 131.37316 | 39582 ft | 476 kts | 96° |
| 2026-05-08 00:02 | -32.80427 | 131.45169 | 39577 ft | 477 kts | 96° |
| 2026-05-08 00:02 | -32.80943 | 131.52977 | 39581 ft | 477 kts | 96° |
| 2026-05-08 00:03 | -32.81455 | 131.60801 | 39575 ft | 471 kts | 95° |
| 2026-05-08 00:03 | -32.81954 | 131.68498 | 39574 ft | 463 kts | 95° |
| 2026-05-08 00:04 | -32.82441 | 131.76077 | 39577 ft | 456 kts | 95° |
| 2026-05-08 00:04 | -32.82916 | 131.83542 | 39584 ft | 449 kts | 95° |
| 2026-05-08 00:05 | -32.83384 | 131.90948 | 39575 ft | 452 kts | 96° |
| 2026-05-08 00:05 | -32.83856 | 131.98473 | 39577 ft | 460 kts | 96° |
| 2026-05-08 00:06 | -32.84331 | 132.06127 | 39568 ft | 468 kts | 95° |
| 2026-05-08 00:06 | -32.84808 | 132.13906 | 39566 ft | 475 kts | 95° |
| 2026-05-08 00:07 | -32.85287 | 132.21803 | 39583 ft | 482 kts | 95° |
| 2026-05-08 00:07 | -32.85764 | 132.29760 | 39580 ft | 482 kts | 95° |
| 2026-05-08 00:08 | -32.86155 | 132.36365 | 39580 ft | 481 kts | 95° |
| 2026-05-08 00:08 | -32.86622 | 132.44291 | 39569 ft | 480 kts | 95° |
| 2026-05-08 00:09 | -32.87085 | 132.52221 | 39577 ft | 481 kts | 95° |
| 2026-05-08 00:09 | -32.87544 | 132.60163 | 39567 ft | 481 kts | 96° |
| 2026-05-08 00:10 | -32.87998 | 132.68119 | 39571 ft | 483 kts | 95° |
| 2026-05-08 00:10 | -32.88448 | 132.76089 | 39571 ft | 483 kts | 95° |
| 2026-05-08 00:11 | -32.88892 | 132.84040 | 39571 ft | 481 kts | 95° |
| 2026-05-08 00:11 | -32.89330 | 132.91979 | 39563 ft | 481 kts | 94° |
| 2026-05-08 00:12 | -32.89763 | 132.99924 | 39581 ft | 481 kts | 95° |
| 2026-05-08 00:12 | -32.90191 | 133.07868 | 39572 ft | 482 kts | 95° |
| 2026-05-08 00:13 | -32.90615 | 133.15826 | 39575 ft | 482 kts | 94° |
| 2026-05-08 00:13 | -32.91033 | 133.23776 | 39567 ft | 481 kts | 94° |
| 2026-05-08 00:14 | -32.91446 | 133.31725 | 39562 ft | 481 kts | 95° |
| 2026-05-08 00:14 | -32.91855 | 133.39678 | 39565 ft | 482 kts | 95° |
| 2026-05-08 00:15 | -32.92258 | 133.47637 | 39565 ft | 482 kts | 94° |
| 2026-05-08 00:15 | -32.92658 | 133.55618 | 39563 ft | 483 kts | 94° |
| 2026-05-08 00:16 | -32.93049 | 133.63549 | 39566 ft | 476 kts | 95° |
| 2026-05-08 00:16 | -32.93426 | 133.71290 | 39572 ft | 468 kts | 95° |
| 2026-05-08 00:17 | -32.93795 | 133.78955 | 39564 ft | 460 kts | 94° |
| 2026-05-08 00:17 | -32.94154 | 133.86493 | 39565 ft | 453 kts | 94° |
| 2026-05-08 00:18 | -32.94502 | 133.93920 | 39571 ft | 446 kts | 94° |
| 2026-05-08 00:18 | -32.94841 | 134.01234 | 39559 ft | 439 kts | 94° |
| 2026-05-08 00:19 | -32.95175 | 134.08506 | 39556 ft | 444 kts | 94° |
| 2026-05-08 00:19 | -32.95512 | 134.15905 | 39565 ft | 452 kts | 94° |
| 2026-05-08 00:20 | -32.95849 | 134.23446 | 39557 ft | 460 kts | 94° |
| 2026-05-08 00:20 | -32.96187 | 134.31127 | 39560 ft | 468 kts | 94° |
| 2026-05-08 00:21 | -32.96526 | 134.38933 | 39564 ft | 476 kts | 94° |
| 2026-05-08 00:21 | -32.96865 | 134.46869 | 39560 ft | 483 kts | 93° |
| 2026-05-08 00:22 | -32.97203 | 134.54895 | 39553 ft | 485 kts | 93° |
| 2026-05-08 00:22 | -32.97535 | 134.62908 | 39554 ft | 484 kts | 93° |
| 2026-05-08 00:23 | -32.97863 | 134.70923 | 39556 ft | 485 kts | 93° |
| 2026-05-08 00:23 | -32.98185 | 134.78944 | 39557 ft | 485 kts | 93° |
| 2026-05-08 00:24 | -32.98502 | 134.86958 | 39562 ft | 484 kts | 93° |
| 2026-05-08 00:24 | -32.98814 | 134.94967 | 39561 ft | 484 kts | 93° |
| 2026-05-08 00:25 | -32.99121 | 135.02976 | 39557 ft | 484 kts | 93° |
| 2026-05-08 00:25 | -32.99423 | 135.10998 | 39556 ft | 485 kts | 93° |
| 2026-05-08 00:26 | -32.99715 | 135.19024 | 39555 ft | 485 kts | 93° |
| 2026-05-08 00:26 | -32.99995 | 135.26996 | 39553 ft | 485 kts | 93° |
| 2026-05-08 00:27 | -33.00271 | 135.35020 | 39550 ft | 485 kts | 93° |
| 2026-05-08 00:27 | -33.00543 | 135.43068 | 39549 ft | 487 kts | 93° |
| 2026-05-08 00:28 | -33.00811 | 135.51132 | 39550 ft | 487 kts | 93° |
| 2026-05-08 00:28 | -33.01074 | 135.59197 | 39542 ft | 487 kts | 92° |
| 2026-05-08 00:29 | -33.01332 | 135.67268 | 39549 ft | 488 kts | 93° |
| 2026-05-08 00:29 | -33.01585 | 135.75336 | 39553 ft | 488 kts | 93° |
| 2026-05-08 00:30 | -33.01833 | 135.83419 | 39557 ft | 488 kts | 93° |
| 2026-05-08 00:30 | -33.02076 | 135.91512 | 39558 ft | 489 kts | 92° |
| 2026-05-08 00:31 | -33.02314 | 135.99613 | 39541 ft | 489 kts | 92° |
| 2026-05-08 00:31 | -33.02547 | 136.07716 | 39544 ft | 489 kts | 92° |
| 2026-05-08 00:32 | -33.02774 | 136.15816 | 39540 ft | 489 kts | 92° |
| 2026-05-08 00:32 | -33.02996 | 136.23917 | 39544 ft | 489 kts | 92° |
| 2026-05-08 00:33 | -33.03214 | 136.32031 | 39546 ft | 491 kts | 92° |
| 2026-05-08 00:33 | -33.03427 | 136.40169 | 39542 ft | 491 kts | 92° |
| 2026-05-08 00:34 | -33.03634 | 136.48305 | 39540 ft | 491 kts | 92° |
| 2026-05-08 00:34 | -33.03836 | 136.56435 | 39530 ft | 491 kts | 92° |
| 2026-05-08 00:35 | -33.04033 | 136.64566 | 39530 ft | 491 kts | 92° |
| 2026-05-08 00:35 | -33.04224 | 136.72692 | 39536 ft | 490 kts | 92° |
| 2026-05-08 00:36 | -33.04410 | 136.80824 | 39531 ft | 491 kts | 92° |
| 2026-05-08 00:36 | -33.04589 | 136.88912 | 39517 ft | 491 kts | 92° |
| 2026-05-08 00:37 | -33.04766 | 136.97104 | 39528 ft | 491 kts | 92° |
| 2026-05-08 00:38 | -33.05019 | 137.09258 | 39517 ft | 491 kts | 92° |
| 2026-05-08 00:38 | -33.05181 | 137.17393 | 39513 ft | 491 kts | 92° |
| 2026-05-08 00:39 | -33.05338 | 137.25524 | 39519 ft | 491 kts | 92° |
| 2026-05-08 00:39 | -33.05491 | 137.33683 | 39506 ft | 492 kts | 91° |
| 2026-05-08 00:40 | -33.05638 | 137.41842 | 39509 ft | 493 kts | 91° |
| 2026-05-08 00:40 | -33.05794 | 137.50008 | 39505 ft | 493 kts | 94° |
| 2026-05-08 00:41 | -33.06846 | 137.58057 | 39509 ft | 492 kts | 102° |
| 2026-05-08 00:41 | -33.08256 | 137.66029 | 39511 ft | 492 kts | 103° |
| 2026-05-08 00:42 | -33.09731 | 137.73990 | 39502 ft | 492 kts | 103° |
| 2026-05-08 00:42 | -33.11196 | 137.81961 | 39510 ft | 492 kts | 103° |
| 2026-05-08 00:43 | -33.12640 | 137.89931 | 39511 ft | 492 kts | 103° |
| 2026-05-08 00:43 | -33.14076 | 137.97917 | 39512 ft | 493 kts | 103° |
| 2026-05-08 00:44 | -33.15507 | 138.05923 | 39508 ft | 493 kts | 103° |
| 2026-05-08 00:44 | -33.16934 | 138.13926 | 39509 ft | 493 kts | 103° |
| 2026-05-08 00:45 | -33.18356 | 138.21933 | 39503 ft | 493 kts | 103° |
| 2026-05-08 00:45 | -33.19774 | 138.29948 | 39516 ft | 493 kts | 102° |
| 2026-05-08 00:46 | -33.21185 | 138.37956 | 39503 ft | 493 kts | 102° |
| 2026-05-08 00:46 | -33.22591 | 138.45965 | 39514 ft | 493 kts | 102° |
| 2026-05-08 00:47 | -33.23982 | 138.53920 | 39511 ft | 493 kts | 102° |
| 2026-05-08 00:47 | -33.25377 | 138.61935 | 39509 ft | 493 kts | 102° |
| 2026-05-08 00:48 | -33.26767 | 138.69948 | 39506 ft | 493 kts | 102° |
| 2026-05-08 00:48 | -33.28156 | 138.77988 | 39508 ft | 495 kts | 102° |
| 2026-05-08 00:49 | -33.29545 | 138.86063 | 39494 ft | 496 kts | 102° |
| 2026-05-08 00:49 | -33.30928 | 138.94135 | 39496 ft | 495 kts | 102° |
| 2026-05-08 00:50 | -33.32305 | 139.02207 | 39492 ft | 495 kts | 102° |
| 2026-05-08 00:50 | -33.33677 | 139.10280 | 39499 ft | 495 kts | 102° |
| 2026-05-08 00:51 | -33.35041 | 139.18336 | 39489 ft | 494 kts | 102° |
| 2026-05-08 00:51 | -33.36396 | 139.26379 | 39488 ft | 493 kts | 102° |
| 2026-05-08 00:52 | -33.37747 | 139.34430 | 39486 ft | 493 kts | 102° |
| 2026-05-08 00:52 | -33.39087 | 139.42482 | 39483 ft | 494 kts | 102° |
| 2026-05-08 00:53 | -33.40369 | 139.50552 | 39479 ft | 494 kts | 101° |
| 2026-05-08 00:53 | -33.41618 | 139.58574 | 39487 ft | 494 kts | 101° |
| 2026-05-08 00:54 | -33.42876 | 139.66671 | 39481 ft | 496 kts | 101° |
| 2026-05-08 00:54 | -33.44139 | 139.74800 | 39490 ft | 497 kts | 101° |
| 2026-05-08 00:55 | -33.45397 | 139.82929 | 39478 ft | 496 kts | 101° |
| 2026-05-08 00:55 | -33.46650 | 139.91056 | 39474 ft | 496 kts | 101° |
| 2026-05-08 00:56 | -33.47897 | 139.99188 | 39472 ft | 496 kts | 101° |
| 2026-05-08 00:56 | -33.48929 | 140.05940 | 39481 ft | 496 kts | 101° |
| 2026-05-08 00:57 | -33.50166 | 140.14068 | 39473 ft | 496 kts | 101° |
| 2026-05-08 00:57 | -33.51396 | 140.22196 | 39467 ft | 496 kts | 101° |
| 2026-05-08 00:58 | -33.52622 | 140.30324 | 39465 ft | 496 kts | 101° |
| 2026-05-08 00:58 | -33.53842 | 140.38455 | 39463 ft | 496 kts | 101° |
| 2026-05-08 00:59 | -33.55057 | 140.46594 | 39465 ft | 496 kts | 101° |
| 2026-05-08 00:59 | -33.56266 | 140.54724 | 39465 ft | 495 kts | 101° |
| 2026-05-08 01:00 | -33.57469 | 140.62854 | 39463 ft | 495 kts | 101° |
| 2026-05-08 01:00 | -33.58667 | 140.70988 | 39460 ft | 495 kts | 101° |
| 2026-05-08 01:01 | -33.59860 | 140.79124 | 39460 ft | 495 kts | 101° |
| 2026-05-08 01:01 | -33.61046 | 140.87257 | 39456 ft | 495 kts | 101° |
| 2026-05-08 01:02 | -33.62228 | 140.95394 | 39454 ft | 496 kts | 100° |
| 2026-05-08 01:02 | -33.63405 | 141.03546 | 39453 ft | 496 kts | 100° |
| 2026-05-08 01:03 | -33.64577 | 141.11700 | 39458 ft | 496 kts | 100° |
| 2026-05-08 01:03 | -33.65742 | 141.19847 | 39449 ft | 495 kts | 100° |
| 2026-05-08 01:04 | -33.66895 | 141.27942 | 39449 ft | 495 kts | 100° |
| 2026-05-08 01:04 | -33.68049 | 141.36092 | 39439 ft | 495 kts | 100° |
| 2026-05-08 01:05 | -33.69202 | 141.44272 | 39441 ft | 498 kts | 100° |
| 2026-05-08 01:05 | -33.70353 | 141.52479 | 39439 ft | 498 kts | 100° |
| 2026-05-08 01:06 | -33.71498 | 141.60686 | 39437 ft | 498 kts | 100° |
| 2026-05-08 01:06 | -33.72639 | 141.68899 | 39435 ft | 498 kts | 100° |
| 2026-05-08 01:07 | -33.73773 | 141.77110 | 39435 ft | 498 kts | 100° |
| 2026-05-08 01:07 | -33.74902 | 141.85319 | 39437 ft | 498 kts | 100° |
| 2026-05-08 01:08 | -33.76024 | 141.93527 | 39428 ft | 497 kts | 100° |
| 2026-05-08 01:08 | -33.77141 | 142.01734 | 39425 ft | 498 kts | 100° |
| 2026-05-08 01:09 | -33.78252 | 142.09945 | 39425 ft | 498 kts | 100° |
| 2026-05-08 01:09 | -33.79358 | 142.18156 | 39425 ft | 498 kts | 100° |
| 2026-05-08 01:10 | -33.80458 | 142.26371 | 39410 ft | 498 kts | 100° |
| 2026-05-08 01:10 | -33.81555 | 142.34601 | 39420 ft | 500 kts | 100° |
| 2026-05-08 01:11 | -33.82650 | 142.42858 | 39414 ft | 500 kts | 100° |
| 2026-05-08 01:11 | -33.83739 | 142.51118 | 39414 ft | 500 kts | 99° |
| 2026-05-08 01:12 | -33.84821 | 142.59376 | 39411 ft | 500 kts | 99° |
| 2026-05-08 01:12 | -33.85892 | 142.67629 | 39408 ft | 499 kts | 99° |
| 2026-05-08 01:13 | -33.86951 | 142.75832 | 39404 ft | 499 kts | 99° |
| 2026-05-08 01:13 | -33.88012 | 142.84086 | 39405 ft | 498 kts | 99° |
| 2026-05-08 01:14 | -33.89065 | 142.92325 | 39402 ft | 498 kts | 99° |
| 2026-05-08 01:14 | -33.90112 | 143.00562 | 39399 ft | 498 kts | 99° |
| 2026-05-08 01:15 | -33.91152 | 143.08794 | 39399 ft | 497 kts | 99° |
| 2026-05-08 01:15 | -33.92185 | 143.17010 | 39399 ft | 497 kts | 99° |
| 2026-05-08 01:16 | -33.93214 | 143.25241 | 39392 ft | 499 kts | 99° |
| 2026-05-08 01:16 | -33.94244 | 143.33524 | 39387 ft | 501 kts | 99° |
| 2026-05-08 01:17 | -33.95270 | 143.41819 | 39389 ft | 501 kts | 99° |
| 2026-05-08 01:17 | -33.96289 | 143.50113 | 39397 ft | 501 kts | 99° |
| 2026-05-08 01:18 | -33.97303 | 143.58408 | 39382 ft | 500 kts | 99° |
| 2026-05-08 01:18 | -33.98310 | 143.66697 | 39382 ft | 500 kts | 99° |
| 2026-05-08 01:19 | -33.99313 | 143.74997 | 39380 ft | 500 kts | 99° |
| 2026-05-08 01:19 | -34.00308 | 143.83286 | 39371 ft | 500 kts | 99° |
| 2026-05-08 01:20 | -34.01299 | 143.91583 | 39372 ft | 500 kts | 99° |
| 2026-05-08 01:20 | -34.02284 | 143.99871 | 39372 ft | 500 kts | 99° |
| 2026-05-08 01:21 | -34.03263 | 144.08169 | 39366 ft | 500 kts | 99° |
| 2026-05-08 01:21 | -34.04237 | 144.16466 | 39356 ft | 500 kts | 99° |
| 2026-05-08 01:22 | -34.05207 | 144.24787 | 39368 ft | 503 kts | 99° |
| 2026-05-08 01:22 | -34.06178 | 144.33158 | 39358 ft | 504 kts | 99° |
| 2026-05-08 01:23 | -34.07143 | 144.41536 | 39353 ft | 504 kts | 99° |
| 2026-05-08 01:23 | -34.08096 | 144.49860 | 39356 ft | 504 kts | 99° |
| 2026-05-08 01:24 | -34.09050 | 144.58239 | 39346 ft | 504 kts | 99° |
| 2026-05-08 01:24 | -34.09998 | 144.66625 | 39340 ft | 504 kts | 99° |
| 2026-05-08 01:25 | -34.10942 | 144.75015 | 39342 ft | 505 kts | 99° |
| 2026-05-08 01:25 | -34.11879 | 144.83399 | 39341 ft | 504 kts | 99° |
| 2026-05-08 01:26 | -34.12808 | 144.91772 | 39333 ft | 503 kts | 99° |
| 2026-05-08 01:26 | -34.13731 | 145.00147 | 39330 ft | 503 kts | 99° |
| 2026-05-08 01:27 | -34.14649 | 145.08525 | 39325 ft | 504 kts | 99° |
| 2026-05-08 01:27 | -34.15562 | 145.16909 | 39320 ft | 504 kts | 99° |
| 2026-05-08 01:28 | -34.16473 | 145.25319 | 39319 ft | 507 kts | 99° |
| 2026-05-08 01:28 | -34.17380 | 145.33761 | 39321 ft | 507 kts | 99° |
| 2026-05-08 01:29 | -34.18275 | 145.42144 | 39315 ft | 507 kts | 99° |
| 2026-05-08 01:29 | -34.19170 | 145.50583 | 39311 ft | 507 kts | 99° |
| 2026-05-08 01:30 | -34.20060 | 145.59029 | 39309 ft | 507 kts | 99° |
| 2026-05-08 01:30 | -34.20945 | 145.67488 | 39308 ft | 508 kts | 99° |
| 2026-05-08 01:31 | -34.21825 | 145.75959 | 39307 ft | 508 kts | 99° |
| 2026-05-08 01:31 | -34.22700 | 145.84433 | 39307 ft | 509 kts | 99° |
| 2026-05-08 01:32 | -34.23570 | 145.92922 | 39296 ft | 509 kts | 99° |
| 2026-05-08 01:32 | -34.24436 | 146.01424 | 39294 ft | 509 kts | 99° |
| 2026-05-08 01:33 | -34.25401 | 146.09898 | 39294 ft | 509 kts | 102° |
| 2026-05-08 01:33 | -34.26742 | 146.18298 | 39292 ft | 509 kts | 104° |
| 2026-05-08 01:34 | -34.28160 | 146.26686 | 39285 ft | 510 kts | 103° |
| 2026-05-08 01:34 | -34.29544 | 146.35102 | 39287 ft | 511 kts | 103° |
| 2026-05-08 01:35 | -34.30885 | 146.43484 | 39285 ft | 511 kts | 103° |
| 2026-05-08 01:35 | -34.32221 | 146.51929 | 39284 ft | 511 kts | 103° |
| 2026-05-08 01:36 | -34.33550 | 146.60375 | 39280 ft | 511 kts | 103° |
| 2026-05-08 01:36 | -34.34875 | 146.68821 | 39276 ft | 511 kts | 103° |
| 2026-05-08 01:37 | -34.36195 | 146.77276 | 39277 ft | 511 kts | 103° |
| 2026-05-08 01:37 | -34.37511 | 146.85735 | 39284 ft | 511 kts | 103° |
| 2026-05-08 01:38 | -34.38820 | 146.94199 | 39272 ft | 512 kts | 103° |
| 2026-05-08 01:38 | -34.40126 | 147.02677 | 39268 ft | 512 kts | 103° |
| 2026-05-08 01:39 | -34.41425 | 147.11157 | 39287 ft | 512 kts | 103° |
| 2026-05-08 01:39 | -34.42720 | 147.19643 | 39270 ft | 512 kts | 103° |
| 2026-05-08 01:40 | -34.44008 | 147.28131 | 39254 ft | 512 kts | 103° |
| 2026-05-08 01:40 | -34.45290 | 147.36624 | 39259 ft | 513 kts | 103° |
| 2026-05-08 01:41 | -34.46568 | 147.45125 | 39264 ft | 513 kts | 103° |
| 2026-05-08 01:41 | -34.47839 | 147.53623 | 39250 ft | 513 kts | 103° |
| 2026-05-08 01:42 | -34.49104 | 147.62125 | 39255 ft | 513 kts | 103° |
| 2026-05-08 01:42 | -34.50365 | 147.70639 | 39251 ft | 514 kts | 103° |
| 2026-05-08 01:43 | -34.51628 | 147.79201 | 39251 ft | 517 kts | 103° |
| 2026-05-08 01:43 | -34.52885 | 147.87782 | 39248 ft | 517 kts | 103° |
| 2026-05-08 01:44 | -34.54129 | 147.96314 | 39256 ft | 518 kts | 103° |
| 2026-05-08 01:44 | -34.55381 | 148.04941 | 39244 ft | 520 kts | 103° |
| 2026-05-08 01:45 | -34.56639 | 148.13647 | 39242 ft | 521 kts | 103° |
| 2026-05-08 01:45 | -34.57873 | 148.22247 | 39255 ft | 521 kts | 103° |
| 2026-05-08 01:46 | -34.59117 | 148.30945 | 39240 ft | 525 kts | 103° |
| 2026-05-08 01:46 | -34.60360 | 148.39688 | 39241 ft | 526 kts | 103° |
| 2026-05-08 01:47 | -34.61595 | 148.48430 | 39251 ft | 526 kts | 103° |
| 2026-05-08 01:47 | -34.62629 | 148.55776 | 39236 ft | 528 kts | 103° |
| 2026-05-08 01:48 | -34.64473 | 148.68973 | 39226 ft | 529 kts | 103° |
| 2026-05-08 01:48 | -34.65695 | 148.77776 | 39236 ft | 529 kts | 103° |
| 2026-05-08 01:49 | -34.66905 | 148.86540 | 39221 ft | 530 kts | 103° |
| 2026-05-08 01:49 | -34.68119 | 148.95382 | 39222 ft | 531 kts | 103° |
| 2026-05-08 01:50 | -34.69327 | 149.04228 | 39234 ft | 531 kts | 103° |
| 2026-05-08 01:50 | -34.70533 | 149.13107 | 39219 ft | 535 kts | 103° |
| 2026-05-08 01:51 | -34.71743 | 149.22057 | 39218 ft | 537 kts | 103° |
| 2026-05-08 01:51 | -34.72938 | 149.30982 | 39069 ft | 529 kts | 103° |
| 2026-05-08 01:52 | -34.73332 | 149.35394 | 38214 ft | 526 kts | 92° |
| 2026-05-08 01:52 | -34.72967 | 149.39826 | 37006 ft | 529 kts | 78° |
| 2026-05-08 01:52 | -34.71774 | 149.44046 | 35832 ft | 529 kts | 68° |
| 2026-05-08 01:52 | -34.70231 | 149.48091 | 34774 ft | 525 kts | 65° |
| 2026-05-08 01:53 | -34.68563 | 149.51994 | 33772 ft | 517 kts | 63° |
| 2026-05-08 01:53 | -34.66856 | 149.55797 | 32865 ft | 508 kts | 63° |
| 2026-05-08 01:53 | -34.65164 | 149.59516 | 31987 ft | 498 kts | 63° |
| 2026-05-08 01:53 | -34.63507 | 149.63174 | 31217 ft | 489 kts | 63° |
| 2026-05-08 01:54 | -34.61893 | 149.66772 | 30658 ft | 484 kts | 63° |
| 2026-05-08 01:54 | -34.60296 | 149.70369 | 30002 ft | 485 kts | 64° |
| 2026-05-08 01:54 | -34.58703 | 149.73983 | 29307 ft | 485 kts | 64° |
| 2026-05-08 01:54 | -34.57116 | 149.77593 | 28658 ft | 485 kts | 64° |
| 2026-05-08 01:55 | -34.55532 | 149.81201 | 28035 ft | 484 kts | 64° |
| 2026-05-08 01:55 | -34.53949 | 149.84800 | 27380 ft | 483 kts | 64° |
| 2026-05-08 01:55 | -34.52367 | 149.88394 | 26706 ft | 483 kts | 64° |
| 2026-05-08 01:55 | -34.50780 | 149.91990 | 26062 ft | 484 kts | 64° |
| 2026-05-08 01:56 | -34.49191 | 149.95585 | 25386 ft | 484 kts | 64° |
| 2026-05-08 01:56 | -34.47597 | 149.99188 | 24700 ft | 485 kts | 64° |
| 2026-05-08 01:56 | -34.46006 | 150.02781 | 24108 ft | 483 kts | 64° |
| 2026-05-08 01:56 | -34.44422 | 150.06353 | 23495 ft | 480 kts | 64° |
| 2026-05-08 01:57 | -34.42863 | 150.09864 | 22842 ft | 466 kts | 64° |
| 2026-05-08 01:57 | -34.41344 | 150.13278 | 21979 ft | 453 kts | 64° |
| 2026-05-08 01:57 | -34.39874 | 150.16581 | 21332 ft | 437 kts | 64° |
| 2026-05-08 01:57 | -34.38452 | 150.19772 | 20739 ft | 424 kts | 65° |
| 2026-05-08 01:58 | -34.37070 | 150.22874 | 20124 ft | 414 kts | 65° |
| 2026-05-08 01:58 | -34.35712 | 150.25924 | 19537 ft | 411 kts | 65° |
| 2026-05-08 01:58 | -34.34354 | 150.28976 | 18940 ft | 412 kts | 65° |
| 2026-05-08 01:58 | -34.32991 | 150.32032 | 18328 ft | 414 kts | 64° |
| 2026-05-08 01:59 | -34.31614 | 150.35112 | 17658 ft | 417 kts | 65° |
| 2026-05-08 01:59 | -34.30251 | 150.38163 | 17049 ft | 418 kts | 64° |
| 2026-05-08 01:59 | -34.28867 | 150.41256 | 16431 ft | 418 kts | 64° |
| 2026-05-08 01:59 | -34.27482 | 150.44351 | 15790 ft | 419 kts | 64° |
| 2026-05-08 02:00 | -34.26098 | 150.47448 | 15185 ft | 419 kts | 64° |
| 2026-05-08 02:00 | -34.24769 | 150.50418 | 14582 ft | 418 kts | 64° |
| 2026-05-08 02:00 | -34.23387 | 150.53507 | 13920 ft | 414 kts | 63° |
| 2026-05-08 02:00 | -34.22042 | 150.56505 | 13266 ft | 397 kts | 63° |
| 2026-05-08 02:01 | -34.20758 | 150.59364 | 12704 ft | 379 kts | 63° |
| 2026-05-08 02:01 | -34.19522 | 150.62118 | 12124 ft | 367 kts | 63° |
| 2026-05-08 02:01 | -34.18324 | 150.64789 | 11565 ft | 357 kts | 63° |
| 2026-05-08 02:01 | -34.17152 | 150.67397 | 11015 ft | 349 kts | 63° |
| 2026-05-08 02:02 | -34.16005 | 150.69947 | 10474 ft | 342 kts | 63° |
| 2026-05-08 02:02 | -34.14904 | 150.72390 | 10327 ft | 320 kts | 63° |
| 2026-05-08 02:02 | -34.13875 | 150.74671 | 10264 ft | 299 kts | 63° |
| 2026-05-08 02:02 | -34.12897 | 150.76842 | 10150 ft | 295 kts | 62° |
| 2026-05-08 02:03 | -34.11909 | 150.79037 | 9835 ft | 299 kts | 62° |
| 2026-05-08 02:03 | -34.10917 | 150.81238 | 9337 ft | 300 kts | 63° |
| 2026-05-08 02:03 | -34.09914 | 150.83468 | 8935 ft | 303 kts | 63° |
| 2026-05-08 02:03 | -34.08896 | 150.85730 | 8723 ft | 310 kts | 63° |
| 2026-05-08 02:04 | -34.07862 | 150.88028 | 8487 ft | 312 kts | 63° |
| 2026-05-08 02:04 | -34.06828 | 150.90323 | 8228 ft | 311 kts | 64° |
| 2026-05-08 02:04 | -34.05801 | 150.92604 | 7985 ft | 309 kts | 64° |
| 2026-05-08 02:04 | -34.04778 | 150.94870 | 7741 ft | 306 kts | 64° |
| 2026-05-08 02:05 | -34.03762 | 150.97121 | 7496 ft | 305 kts | 64° |
| 2026-05-08 02:05 | -34.02753 | 150.99354 | 7257 ft | 302 kts | 64° |
| 2026-05-08 02:05 | -34.01776 | 151.01542 | 7026 ft | 300 kts | 65° |
| 2026-05-08 02:05 | -34.00796 | 151.03755 | 6777 ft | 298 kts | 65° |
| 2026-05-08 02:06 | -33.99824 | 151.05961 | 6542 ft | 299 kts | 65° |
| 2026-05-08 02:06 | -33.98845 | 151.08183 | 6298 ft | 301 kts | 65° |
| 2026-05-08 02:06 | -33.97863 | 151.10404 | 6039 ft | 299 kts | 65° |
| 2026-05-08 02:06 | -33.96884 | 151.12613 | 5801 ft | 298 kts | 65° |
| 2026-05-08 02:07 | -33.95908 | 151.14812 | 5566 ft | 297 kts | 65° |
| 2026-05-08 02:07 | -33.94943 | 151.16987 | 5384 ft | 290 kts | 66° |
| 2026-05-08 02:07 | -33.94162 | 151.19155 | 5163 ft | 275 kts | 75° |
| 2026-05-08 02:07 | -33.93583 | 151.21296 | 4957 ft | 262 kts | 78° |
| 2026-05-08 02:08 | -33.93059 | 151.23355 | 4742 ft | 253 kts | 78° |
| 2026-05-08 02:08 | -33.92563 | 151.25326 | 4561 ft | 239 kts | 78° |
| 2026-05-08 02:08 | -33.92088 | 151.27197 | 4354 ft | 228 kts | 79° |
| 2026-05-08 02:08 | -33.91637 | 151.28975 | 4148 ft | 218 kts | 79° |
| 2026-05-08 02:09 | -33.91193 | 151.30716 | 4004 ft | 218 kts | 77° |
| 2026-05-08 02:09 | -33.90441 | 151.32325 | 4005 ft | 226 kts | 51° |
| 2026-05-08 02:09 | -33.89318 | 151.33663 | 3783 ft | 230 kts | 44° |
| 2026-05-08 02:09 | -33.88157 | 151.34986 | 3458 ft | 228 kts | 53° |
| 2026-05-08 02:10 | -33.87385 | 151.36610 | 3201 ft | 221 kts | 70° |
| 2026-05-08 02:10 | -33.86790 | 151.38293 | 3101 ft | 218 kts | 72° |
| 2026-05-08 02:10 | -33.86217 | 151.39990 | 3087 ft | 219 kts | 72° |
| 2026-05-08 02:10 | -33.85652 | 151.41690 | 3086 ft | 219 kts | 72° |
| 2026-05-08 02:11 | -33.85086 | 151.43390 | 3086 ft | 220 kts | 73° |
| 2026-05-08 02:11 | -33.84656 | 151.45132 | 3080 ft | 214 kts | 91° |
| 2026-05-08 02:11 | -33.84840 | 151.46817 | 3073 ft | 200 kts | 123° |
| 2026-05-08 02:11 | -33.85717 | 151.47983 | 3068 ft | 178 kts | 163° |
| 2026-05-08 02:12 | -33.86843 | 151.47975 | 3076 ft | 162 kts | 211° |
| 2026-05-08 02:12 | -33.87442 | 151.46877 | 3075 ft | 168 kts | 254° |
| 2026-05-08 02:12 | -33.87606 | 151.45487 | 3080 ft | 171 kts | 254° |
| 2026-05-08 02:12 | -33.87853 | 151.44095 | 3075 ft | 170 kts | 250° |
| 2026-05-08 02:13 | -33.88166 | 151.42728 | 3080 ft | 169 kts | 249° |
| 2026-05-08 02:13 | -33.88489 | 151.41369 | 3078 ft | 169 kts | 248° |
| 2026-05-08 02:13 | -33.88813 | 151.40007 | 3079 ft | 170 kts | 248° |
| 2026-05-08 02:13 | -33.89136 | 151.38636 | 3082 ft | 170 kts | 249° |
| 2026-05-08 02:14 | -33.89457 | 151.37273 | 3077 ft | 169 kts | 249° |
| 2026-05-08 02:14 | -33.89775 | 151.35912 | 2970 ft | 168 kts | 249° |
| 2026-05-08 02:14 | -33.90093 | 151.34558 | 2747 ft | 168 kts | 249° |
| 2026-05-08 02:14 | -33.90411 | 151.33212 | 2503 ft | 167 kts | 252° |
| 2026-05-08 02:15 | -33.90726 | 151.31871 | 2261 ft | 166 kts | 252° |
| 2026-05-08 02:15 | -33.91041 | 151.30535 | 2032 ft | 166 kts | 253° |
| 2026-05-08 02:15 | -33.91357 | 151.29193 | 1814 ft | 165 kts | 255° |
| 2026-05-08 02:15 | -33.91660 | 151.27901 | 1608 ft | 155 kts | 254° |
| 2026-05-08 02:16 | -33.91942 | 151.26703 | 1407 ft | 144 kts | 254° |
| 2026-05-08 02:16 | -33.92209 | 151.25574 | 1215 ft | 136 kts | 256° |
| 2026-05-08 02:16 | -33.92461 | 151.24498 | 1036 ft | 130 kts | 255° |
| 2026-05-08 02:16 | -33.92697 | 151.23494 | 857 ft | 120 kts | 254° |
| 2026-05-08 02:17 | -33.92921 | 151.22538 | 695 ft | 117 kts | 256° |
| 2026-05-08 02:17 | -33.93135 | 151.21599 | 538 ft | 114 kts | 253° |
| 2026-05-08 02:17 | -33.93354 | 151.20683 | 366 ft | 115 kts | 255° |
| 2026-05-08 02:17 | -33.93577 | 151.19750 | 245 ft | 118 kts | 256° |
| 2026-05-08 02:18 | -33.93804 | 151.18775 | 50 ft | 121 kts | 255° |
| 2026-05-08 02:18 | -33.94003 | 151.17929 | 26 ft | 75 kts | 253° |
| 2026-05-08 02:18 | -33.94093 | 151.17556 | 26 ft | 38 kts | 254° |
| 2026-05-08 02:18 | -33.94144 | 151.17304 | 27 ft | 18 kts | 276° |
| 2026-05-08 02:19 | -33.94089 | 151.17254 | 31 ft | 8 kts | 347° |
| 2026-05-08 02:19 | -33.94025 | 151.17237 | 27 ft | 10 kts | 345° |
| 2026-05-08 02:19 | -33.93987 | 151.17176 | 27 ft | 9 kts | 271° |
| 2026-05-08 02:19 | -33.93999 | 151.17102 | 28 ft | 9 kts | 255° |
| 2026-05-08 02:20 | -33.94015 | 151.17032 | 29 ft | 10 kts | 253° |
| 2026-05-08 02:20 | -33.94037 | 151.16944 | 28 ft | 12 kts | 252° |
| 2026-05-08 02:20 | -33.94050 | 151.16840 | 28 ft | 12 kts | 287° |
| 2026-05-08 02:20 | -33.94002 | 151.16796 | 29 ft | 8 kts | 343° |
| 2026-05-08 02:21 | -33.93993 | 151.16781 | 28 ft | 1 kts | 283° |
| 2026-05-08 02:21 | -33.93993 | 151.16773 | 27 ft | 2 kts | 271° |
| 2026-05-08 02:21 | -33.93994 | 151.16744 | 28 ft | 7 kts | 266° |
| 2026-05-08 02:21 | -33.93984 | 151.16692 | 25 ft | 6 kts | 301° |
| 2026-05-08 02:22 | -33.93976 | 151.16677 | 29 ft | 1 kts | 302° |
| 2026-05-08 02:22 | -33.93975 | 151.16675 | 29 ft | 0 kts | 301° |